Time;durP1;ratioP1;P1;durP2;ratioP2;P2;SDS_P1;SDS_P2;PMS_P1;PMS_P2;Temp;Humidity;BMP_temperature;BMP_pressure;BME280_temperature;BME280_humidity;BME280_pressure;Samples;Min_cycle;Max_cycle;Signal;HPM_P1;HPM_P2
2022/03/23 00:00:15;;;;;;;25.73;16.55;;;9.90;79.10;;;;;;6277433;22;20186;-70
2022/03/23 00:02:42;;;;;;;21.77;15.93;;;9.80;79.20;;;;;;6278078;22;20237;-72
2022/03/23 00:05:09;;;;;;;24.70;16.52;;;9.80;79.70;;;;;;6277451;22;20218;-71
2022/03/23 00:07:37;;;;;;;21.77;17.00;;;9.70;80.30;;;;;;6277246;22;20640;-71
2022/03/23 00:10:05;;;;;;;22.55;16.00;;;9.70;81.10;;;;;;6277741;22;20647;-72
2022/03/23 00:12:32;;;;;;;19.30;15.90;;;9.70;81.60;;;;;;6277813;22;20261;-72
2022/03/23 00:15:00;;;;;;;22.00;16.10;;;9.60;81.30;;;;;;6277864;22;20277;-71
2022/03/23 00:17:27;;;;;;;23.70;15.65;;;9.60;81.20;;;;;;6277272;22;20246;-70
2022/03/23 00:19:54;;;;;;;21.58;16.05;;;9.60;81.40;;;;;;6276314;22;20174;-71
2022/03/23 00:22:25;;;;;;;24.65;16.60;;;9.60;81.10;;;;;;6277212;22;20216;-71
2022/03/23 00:24:52;;;;;;;20.45;15.57;;;9.60;81.70;;;;;;6277886;22;20199;-70
2022/03/23 00:27:18;;;;;;;23.80;16.30;;;9.60;80.60;;;;;;6277573;22;20183;-72
2022/03/23 00:29:45;;;;;;;24.02;16.15;;;9.60;80.90;;;;;;6276825;22;20254;-71
2022/03/23 00:32:14;;;;;;;20.30;15.93;;;9.50;81.70;;;;;;6277311;22;20190;-72
2022/03/23 00:34:40;;;;;;;21.10;15.95;;;9.60;79.90;;;;;;6276847;22;20276;-72
2022/03/23 00:37:07;;;;;;;22.60;15.88;;;9.50;81.30;;;;;;6276987;22;20165;-72
2022/03/23 00:39:34;;;;;;;21.45;16.05;;;9.50;81.30;;;;;;6276836;22;20237;-71
2022/03/23 00:42:01;;;;;;;23.50;15.90;;;9.50;81.10;;;;;;6277569;22;20171;-70
2022/03/23 00:44:28;;;;;;;21.13;15.05;;;9.60;81.30;;;;;;6276864;22;20198;-70
2022/03/23 00:46:55;;;;;;;18.45;14.40;;;9.60;81.30;;;;;;6278355;22;20286;-71
2022/03/23 00:49:23;;;;;;;23.98;16.05;;;9.60;81.20;;;;;;6277400;22;20241;-70
2022/03/23 00:51:53;;;;;;;23.67;15.65;;;9.60;81.10;;;;;;6276889;22;20180;-71
2022/03/23 00:54:21;;;;;;;20.88;15.40;;;9.60;81.40;;;;;;6277141;22;20202;-71
2022/03/23 00:56:50;;;;;;;24.13;16.35;;;9.50;82.00;;;;;;6276709;22;20182;-71
2022/03/23 00:59:17;;;;;;;21.80;16.35;;;9.50;81.70;;;;;;6277060;22;20170;-71
2022/03/23 01:01:45;;;;;;;26.23;16.58;;;9.50;81.50;;;;;;6275632;22;20258;-71
2022/03/23 01:04:12;;;;;;;23.77;16.95;;;9.50;81.30;;;;;;6277509;22;20251;-70
2022/03/23 01:06:40;;;;;;;23.10;17.65;;;9.50;81.30;;;;;;6276599;22;20199;-71
2022/03/23 01:09:07;;;;;;;27.08;16.83;;;9.40;81.70;;;;;;6276745;22;20244;-71
2022/03/23 01:11:34;;;;;;;23.45;16.35;;;9.30;82.10;;;;;;6276692;22;20208;-72
2022/03/23 01:14:01;;;;;;;27.42;15.90;;;9.30;82.70;;;;;;6276450;22;20230;-71
2022/03/23 01:16:28;;;;;;;21.42;14.00;;;9.20;83.10;;;;;;6277433;22;20162;-70
2022/03/23 01:18:55;;;;;;;24.23;16.75;;;9.20;82.90;;;;;;6281545;22;20165;-71
2022/03/23 01:21:22;;;;;;;24.02;17.00;;;9.10;83.10;;;;;;6283724;22;20166;-73
2022/03/23 01:23:51;;;;;;;24.58;16.15;;;9.20;83.10;;;;;;6277300;22;20274;-71
2022/03/23 01:26:18;;;;;;;26.58;18.25;;;9.10;83.30;;;;;;6276972;22;20214;-71
2022/03/23 01:28:45;;;;;;;18.60;15.07;;;9.10;83.00;;;;;;6276779;22;20158;-71
2022/03/23 01:31:12;;;;;;;21.83;15.40;;;9.10;82.90;;;;;;6275807;22;20237;-71
2022/03/23 01:33:39;;;;;;;23.75;17.92;;;9.10;82.80;;;;;;6276515;22;20194;-71
2022/03/23 01:36:06;;;;;;;30.48;21.95;;;9.10;82.50;;;;;;6275417;22;20167;-71
2022/03/23 01:38:34;;;;;;;23.85;15.57;;;9.10;82.40;;;;;;6276798;22;20194;-71
2022/03/23 01:41:02;;;;;;;26.77;17.33;;;9.00;81.70;;;;;;6275937;22;20553;-71
2022/03/23 01:43:29;;;;;;;25.80;17.27;;;9.00;81.50;;;;;;6276633;22;20248;-71
2022/03/23 01:45:56;;;;;;;22.33;14.70;;;9.10;81.90;;;;;;6275791;22;20180;-71
2022/03/23 01:48:23;;;;;;;19.10;15.75;;;9.00;81.60;;;;;;6276799;22;20536;-71
2022/03/23 01:50:50;;;;;;;21.92;16.70;;;9.00;81.40;;;;;;6275068;22;20166;-70
2022/03/23 01:53:17;;;;;;;25.88;17.27;;;9.00;81.70;;;;;;6275972;22;20174;-72
2022/03/23 01:55:45;;;;;;;26.80;15.82;;;8.90;82.30;;;;;;6276487;22;20190;-71
2022/03/23 01:58:13;;;;;;;19.92;16.30;;;8.90;82.50;;;;;;6276358;22;20569;-71
2022/03/23 02:00:40;;;;;;;18.30;15.55;;;8.90;82.70;;;;;;6275689;22;20176;-71
2022/03/23 02:03:07;;;;;;;22.40;16.30;;;8.80;83.00;;;;;;6275869;22;20678;-71
2022/03/23 02:05:34;;;;;;;21.80;16.45;;;8.80;83.00;;;;;;6276531;22;20252;-71
2022/03/23 02:08:01;;;;;;;20.83;15.70;;;8.80;82.90;;;;;;6276006;22;20276;-71
2022/03/23 02:10:31;;;;;;;22.23;17.35;;;8.80;83.30;;;;;;6275706;22;20526;-71
2022/03/23 02:12:58;;;;;;;22.08;16.67;;;8.70;83.00;;;;;;6275627;22;20215;-71
2022/03/23 02:15:28;;;;;;;23.20;17.10;;;8.70;83.10;;;;;;6276362;22;20247;-71
2022/03/23 02:17:56;;;;;;;19.23;14.93;;;8.70;83.00;;;;;;6276498;22;20673;-72
2022/03/23 02:20:24;;;;;;;21.77;16.20;;;8.80;83.70;;;;;;6275409;22;20162;-70
2022/03/23 02:22:52;;;;;;;31.90;17.42;;;8.70;83.90;;;;;;6276209;22;20253;-70
2022/03/23 02:25:22;;;;;;;21.42;15.25;;;8.70;83.90;;;;;;6276303;22;20273;-70
2022/03/23 02:27:50;;;;;;;20.83;15.70;;;8.60;84.00;;;;;;6276238;22;20572;-72
2022/03/23 02:30:18;;;;;;;24.55;16.42;;;8.60;84.40;;;;;;6276019;22;20216;-71
2022/03/23 02:32:45;;;;;;;24.00;16.73;;;8.60;84.20;;;;;;6276270;22;20158;-71
2022/03/23 02:35:14;;;;;;;21.38;16.85;;;8.60;84.40;;;;;;6275990;22;20206;-71
2022/03/23 02:37:41;;;;;;;25.92;19.17;;;8.60;84.20;;;;;;6276360;22;20158;-70
2022/03/23 02:40:11;;;;;;;22.58;17.00;;;8.60;83.80;;;;;;6276477;22;20218;-71
2022/03/23 02:42:46;;;;;;;20.92;15.40;;;8.50;84.00;;;;;;6276130;22;20629;-70
2022/03/23 02:45:14;;;;;;;23.85;16.95;;;8.40;84.60;;;;;;6276730;22;20276;-70
2022/03/23 02:47:42;;;;;;;25.23;18.98;;;8.40;84.70;;;;;;6276113;22;20185;-71
2022/03/23 02:50:10;;;;;;;20.88;16.75;;;8.40;84.80;;;;;;6275725;22;20162;-70
2022/03/23 03:01:51;;;;;;;29.75;18.75;;;8.40;84.80;;;;;;6275982;22;20619;-71
2022/03/23 03:03:58;;;;;;;25.48;19.15;;;8.40;84.30;;;;;;6275906;22;20298;-70
2022/03/23 03:06:25;;;;;;;21.70;16.55;;;8.30;83.70;;;;;;6277226;22;20209;-70
2022/03/23 03:08:51;;;;;;;20.88;16.20;;;8.30;84.40;;;;;;6282816;22;20188;-70
2022/03/23 03:11:21;;;;;;;27.45;18.67;;;8.20;84.70;;;;;;6284186;22;20201;-70
2022/03/23 03:13:49;;;;;;;23.52;17.77;;;8.20;84.60;;;;;;6277958;22;20279;-70
2022/03/23 03:16:17;;;;;;;23.48;16.92;;;8.10;84.60;;;;;;6276696;22;20567;-71
2022/03/23 03:18:46;;;;;;;21.92;16.48;;;8.10;85.20;;;;;;6275552;22;20690;-71
2022/03/23 03:21:14;;;;;;;25.75;17.73;;;8.10;85.40;;;;;;6276155;22;20188;-70
2022/03/23 03:23:42;;;;;;;24.27;16.42;;;8.20;84.70;;;;;;6276439;22;20713;-71
2022/03/23 03:26:13;;;;;;;22.65;17.40;;;8.20;84.60;;;;;;6278731;22;20162;-71
2022/03/23 03:28:42;;;;;;;21.20;15.75;;;8.10;84.70;;;;;;6278793;22;20185;-71
2022/03/23 03:31:15;;;;;;;25.27;15.95;;;8.10;85.00;;;;;;6277866;22;20212;-71
2022/03/23 03:33:43;;;;;;;25.23;16.20;;;8.10;85.40;;;;;;6277800;22;20200;-71
2022/03/23 03:36:10;;;;;;;23.63;16.23;;;8.10;83.80;;;;;;6278554;22;20169;-71
2022/03/23 03:38:38;;;;;;;23.77;17.80;;;8.10;83.20;;;;;;6277775;22;20161;-71
2022/03/23 03:41:06;;;;;;;22.58;17.83;;;8.00;84.00;;;;;;6277561;22;20208;-71
2022/03/23 03:43:34;;;;;;;22.55;17.40;;;8.00;84.80;;;;;;6277839;22;20229;-71
2022/03/23 03:46:06;;;;;;;25.60;17.58;;;8.00;85.10;;;;;;6277602;22;20242;-71
2022/03/23 03:48:33;;;;;;;24.52;16.85;;;7.90;85.40;;;;;;6277633;22;20189;-71
2022/03/23 03:51:00;;;;;;;29.25;17.77;;;7.90;85.90;;;;;;6277284;22;20456;-71
2022/03/23 03:53:27;;;;;;;22.75;17.00;;;7.80;86.00;;;;;;6277581;22;20239;-71
2022/03/23 03:55:54;;;;;;;22.48;17.83;;;7.80;85.70;;;;;;6277893;22;20164;-71
2022/03/23 03:58:21;;;;;;;22.70;17.85;;;7.80;85.30;;;;;;6277343;22;20257;-70
2022/03/23 04:00:48;;;;;;;21.90;17.08;;;7.80;85.50;;;;;;6277207;22;20524;-70
2022/03/23 04:03:16;;;;;;;21.33;15.82;;;7.70;86.50;;;;;;6277462;22;20536;-71
2022/03/23 04:05:44;;;;;;;24.63;17.20;;;7.60;86.40;;;;;;6277495;22;20257;-70
2022/03/23 04:08:11;;;;;;;25.35;17.20;;;7.60;86.50;;;;;;6277276;22;20237;-71
2022/03/23 04:10:39;;;;;;;21.50;16.35;;;7.60;86.20;;;;;;6276941;22;20226;-71
2022/03/23 04:13:08;;;;;;;28.98;19.25;;;7.60;86.20;;;;;;6277432;22;20204;-71
2022/03/23 04:15:35;;;;;;;22.73;16.80;;;7.60;86.40;;;;;;6277808;22;20160;-71
2022/03/23 04:18:02;;;;;;;28.35;18.20;;;7.60;86.30;;;;;;6277455;22;20163;-71
2022/03/23 04:20:31;;;;;;;22.05;17.35;;;7.60;86.30;;;;;;6276912;22;20169;-72
2022/03/23 04:22:58;;;;;;;24.00;18.10;;;7.70;86.60;;;;;;6277041;22;20192;-72
2022/03/23 04:25:27;;;;;;;23.55;17.13;;;7.70;87.20;;;;;;6277035;22;20271;-71
2022/03/23 04:27:55;;;;;;;25.05;17.58;;;7.60;86.50;;;;;;6277371;22;21005;-71
2022/03/23 04:30:25;;;;;;;23.23;17.33;;;7.60;86.60;;;;;;6276734;22;20245;-71
2022/03/23 04:32:53;;;;;;;27.23;18.58;;;7.60;86.70;;;;;;6277184;22;20192;-71
2022/03/23 04:35:20;;;;;;;27.40;18.55;;;7.60;87.20;;;;;;6277036;22;20271;-70
2022/03/23 04:37:49;;;;;;;25.58;17.58;;;7.50;87.30;;;;;;6277393;22;20243;-71
2022/03/23 04:40:16;;;;;;;26.08;16.58;;;7.50;88.10;;;;;;6276289;22;20207;-71
2022/03/23 04:42:44;;;;;;;23.33;16.75;;;7.40;88.30;;;;;;6276929;22;20161;-71
2022/03/23 04:45:14;;;;;;;26.63;19.23;;;7.40;89.00;;;;;;6277224;22;20641;-72
2022/03/23 04:47:41;;;;;;;23.92;15.85;;;7.40;89.40;;;;;;6277492;22;20270;-71
2022/03/23 04:50:10;;;;;;;22.27;16.75;;;7.40;90.00;;;;;;6276531;22;20191;-70
2022/03/23 04:52:38;;;;;;;26.88;19.67;;;7.30;90.30;;;;;;6277146;22;20214;-70
2022/03/23 04:55:07;;;;;;;24.60;17.55;;;7.20;90.30;;;;;;6277291;22;20695;-70
2022/03/23 04:57:34;;;;;;;26.60;19.80;;;7.20;90.50;;;;;;6276897;22;20189;-70
2022/03/23 05:00:01;;;;;;;22.38;18.02;;;7.20;90.60;;;;;;6276516;22;20690;-71
2022/03/23 05:02:28;;;;;;;25.45;18.30;;;7.20;90.80;;;;;;6279796;22;20171;-71
2022/03/23 05:04:55;;;;;;;26.13;18.00;;;7.10;90.80;;;;;;6289078;22;20200;-71
2022/03/23 05:07:22;;;;;;;24.50;19.52;;;7.10;91.00;;;;;;6278111;22;20210;-71
2022/03/23 05:09:49;;;;;;;25.25;19.50;;;7.00;91.20;;;;;;6276661;22;20214;-71
2022/03/23 05:12:18;;;;;;;26.80;19.15;;;6.90;91.60;;;;;;6276587;22;20193;-70
2022/03/23 05:14:45;;;;;;;21.08;17.25;;;6.80;91.90;;;;;;6276890;22;20230;-71
2022/03/23 05:17:11;;;;;;;25.20;18.38;;;6.80;92.30;;;;;;6276957;22;20242;-71
2022/03/23 05:19:38;;;;;;;29.42;20.95;;;6.70;92.70;;;;;;6276494;22;20198;-71
2022/03/23 05:22:05;;;;;;;24.17;18.25;;;6.70;93.00;;;;;;6276412;22;20201;-71
2022/03/23 05:24:33;;;;;;;29.48;21.23;;;6.70;93.20;;;;;;6276921;22;20236;-71
2022/03/23 05:27:00;;;;;;;25.88;17.90;;;6.70;93.40;;;;;;6276639;22;20282;-70
2022/03/23 05:29:29;;;;;;;27.17;20.00;;;6.70;93.50;;;;;;6276795;22;20267;-71
2022/03/23 05:31:56;;;;;;;23.13;18.73;;;6.80;93.70;;;;;;6276768;22;20158;-71
2022/03/23 05:34:24;;;;;;;28.70;19.65;;;6.70;93.70;;;;;;6276998;22;20281;-72
2022/03/23 05:36:51;;;;;;;26.73;19.67;;;6.70;93.70;;;;;;6277370;22;20166;-72
2022/03/23 05:39:20;;;;;;;26.67;19.60;;;6.70;93.70;;;;;;6277118;22;20190;-71
2022/03/23 05:41:46;;;;;;;27.15;19.98;;;6.80;93.70;;;;;;6276074;22;20196;-71
2022/03/23 05:44:15;;;;;;;29.08;20.35;;;6.80;93.60;;;;;;6276574;22;20295;-71
2022/03/23 05:46:44;;;;;;;27.60;20.35;;;6.80;93.30;;;;;;6275605;22;20171;-71
2022/03/23 05:49:12;;;;;;;28.52;20.17;;;6.80;93.20;;;;;;6276745;22;20217;-70
2022/03/23 05:51:39;;;;;;;26.23;18.63;;;7.00;93.30;;;;;;6276235;22;20197;-71
2022/03/23 05:54:07;;;;;;;25.63;20.23;;;7.00;92.90;;;;;;6275873;22;20201;-72
2022/03/23 05:56:34;;;;;;;27.88;20.35;;;7.00;92.90;;;;;;6276399;22;20195;-71
2022/03/23 05:59:01;;;;;;;25.20;19.05;;;7.10;92.80;;;;;;6276103;22;20258;-70
2022/03/23 06:01:28;;;;;;;28.65;18.88;;;7.10;92.50;;;;;;6275382;22;20191;-72
2022/03/23 06:03:56;;;;;;;30.23;19.65;;;7.20;92.10;;;;;;6276398;22;20279;-71
2022/03/23 06:06:23;;;;;;;27.38;19.23;;;7.30;91.60;;;;;;6276548;22;20252;-70
2022/03/23 06:08:50;;;;;;;22.88;18.23;;;7.40;91.20;;;;;;6275657;22;20189;-70
2022/03/23 06:11:17;;;;;;;25.33;19.20;;;7.50;91.20;;;;;;6275689;22;20165;-69
2022/03/23 06:13:44;;;;;;;23.88;18.25;;;7.60;91.00;;;;;;6275607;22;20507;-71
2022/03/23 06:16:11;;;;;;;25.73;19.98;;;7.90;90.70;;;;;;6275843;22;20170;-71
2022/03/23 06:18:40;;;;;;;27.98;19.30;;;8.20;90.40;;;;;;6276506;22;20212;-71
2022/03/23 06:21:08;;;;;;;23.60;17.02;;;8.70;89.10;;;;;;6276457;22;20166;-71
2022/03/23 06:23:36;;;;;;;28.55;19.05;;;9.30;87.70;;;;;;6275289;22;20193;-71
2022/03/23 06:26:05;;;;;;;22.77;18.08;;;10.10;83.00;;;;;;6276756;22;20263;-72
2022/03/23 06:28:32;;;;;;;23.67;17.95;;;11.00;79.40;;;;;;6275866;22;20184;-71
2022/03/23 06:30:59;;;;;;;26.92;19.70;;;11.80;76.00;;;;;;6275406;22;20256;-71
2022/03/23 06:33:26;;;;;;;23.13;17.30;;;12.40;73.10;;;;;;6276791;22;20272;-71
2022/03/23 06:35:53;;;;;;;21.48;18.30;;;12.80;71.10;;;;;;6275721;22;20593;-72
2022/03/23 06:38:22;;;;;;;24.60;17.02;;;13.50;70.10;;;;;;6276550;22;20161;-71
2022/03/23 06:40:49;;;;;;;20.55;18.10;;;14.40;66.80;;;;;;6275525;22;20236;-71
2022/03/23 06:43:17;;;;;;;22.93;19.50;;;15.50;64.00;;;;;;6275579;22;20688;-72
2022/03/23 06:45:44;;;;;;;22.83;19.17;;;16.50;60.90;;;;;;6275941;22;20396;-72
2022/03/23 06:48:21;;;;;;;21.47;19.03;;;17.10;57.90;;;;;;6275709;22;20486;-71
2022/03/23 06:50:56;;;;;;;21.53;18.17;;;17.90;56.80;;;;;;6276007;22;20417;-71
2022/03/23 06:53:29;;;;;;;23.10;20.07;;;18.70;54.00;;;;;;6249135;22;20443;-71
2022/03/23 06:55:57;;;;;;;20.50;18.37;;;19.50;52.70;;;;;;6277584;22;20927;-72
2022/03/23 06:58:24;;;;;;;21.03;18.67;;;19.70;51.80;;;;;;6287000;22;20427;-71
2022/03/23 07:00:51;;;;;;;29.60;21.03;;;20.50;50.70;;;;;;6280767;22;20403;-74
2022/03/23 07:03:18;;;;;;;28.80;20.97;;;21.10;48.70;;;;;;6276222;22;20863;-72
2022/03/23 07:05:45;;;;;;;26.90;20.13;;;21.30;47.90;;;;;;6276244;22;20403;-73
2022/03/23 07:10:58;;;;;;;29.03;20.20;;;22.20;46.50;;;;;;6275257;22;20424;-72
2022/03/23 07:13:25;;;;;;;22.20;19.40;;;22.40;45.80;;;;;;6275022;22;20805;-73
2022/03/23 07:15:52;;;;;;;22.83;19.40;;;22.80;44.70;;;;;;6275007;22;20423;-72
2022/03/23 07:18:19;;;;;;;21.57;19.27;;;22.70;44.80;;;;;;6275326;22;20589;-74
2022/03/23 07:20:47;;;;;;;25.50;20.37;;;22.90;43.40;;;;;;6275297;22;20448;-73
2022/03/23 07:23:13;;;;;;;21.50;19.20;;;22.60;43.50;;;;;;6274466;22;20437;-73
2022/03/23 07:25:40;;;;;;;22.20;19.87;;;22.90;43.40;;;;;;6275333;22;20393;-74
2022/03/23 07:28:09;;;;;;;21.00;18.70;;;23.20;42.90;;;;;;6275394;22;20425;-73
2022/03/23 07:30:37;;;;;;;23.13;19.40;;;23.50;42.40;;;;;;6275086;22;20396;-72
2022/03/23 07:33:05;;;;;;;30.63;20.30;;;24.00;41.50;;;;;;6275190;22;20385;-73
2022/03/23 07:35:31;;;;;;;23.00;20.70;;;23.70;41.30;;;;;;6275432;22;20436;-71
2022/03/23 07:37:58;;;;;;;24.07;21.47;;;23.70;41.00;;;;;;6274956;22;20392;-73
2022/03/23 07:40:26;;;;;;;24.77;20.87;;;23.90;40.90;;;;;;6274821;22;20413;-74
2022/03/23 07:42:53;;;;;;;22.50;19.37;;;23.80;41.20;;;;;;6275250;22;20393;-72
2022/03/23 07:45:21;;;;;;;26.10;23.07;;;24.00;40.60;;;;;;6275300;22;20480;-72
2022/03/23 07:47:48;;;;;;;24.20;20.90;;;24.10;39.40;;;;;;6275227;22;20428;-71
2022/03/23 07:50:15;;;;;;;24.87;19.90;;;23.90;39.60;;;;;;6273422;22;20870;-73
2022/03/23 07:52:42;;;;;;;24.40;21.80;;;24.20;39.80;;;;;;6274994;22;20958;-72
2022/03/23 07:55:10;;;;;;;26.63;20.70;;;24.40;39.50;;;;;;6275997;22;20456;-74
2022/03/23 07:57:37;;;;;;;22.57;20.20;;;24.20;38.30;;;;;;6275436;22;20432;-73
2022/03/23 08:00:05;;;;;;;22.93;19.93;;;24.20;38.00;;;;;;6275464;22;20390;-73
2022/03/23 08:02:33;;;;;;;21.90;19.23;;;24.30;38.40;;;;;;6275199;22;20408;-74
2022/03/23 08:05:00;;;;;;;25.23;20.27;;;24.60;37.80;;;;;;6275618;22;20425;-74
2022/03/23 08:07:27;;;;;;;21.40;19.10;;;25.40;37.40;;;;;;6275246;22;20447;-74
2022/03/23 08:09:54;;;;;;;21.03;18.53;;;26.20;36.40;;;;;;6275634;22;20690;-73
2022/03/23 08:12:21;;;;;;;19.23;17.33;;;26.10;35.70;;;;;;6277678;22;20499;-72
2022/03/23 08:14:49;;;;;;;21.07;18.90;;;25.90;37.60;;;;;;6277476;22;20429;-73
2022/03/23 08:17:15;;;;;;;25.73;21.70;;;25.50;37.90;;;;;;6277754;22;20403;-73
2022/03/23 08:19:44;;;;;;;22.03;19.73;;;25.30;35.60;;;;;;6277599;22;20385;-73
2022/03/23 08:22:11;;;;;;;24.23;18.70;;;25.70;34.40;;;;;;6277548;22;20389;-73
2022/03/23 08:24:38;;;;;;;23.20;20.53;;;26.10;33.80;;;;;;6277421;22;20935;-73
2022/03/23 08:27:10;;;;;;;23.30;19.87;;;26.40;33.10;;;;;;6277120;22;20400;-72
2022/03/23 08:29:37;;;;;;;21.93;19.73;;;26.40;33.20;;;;;;6277553;22;20429;-72
2022/03/23 08:32:04;;;;;;;22.10;19.83;;;26.50;33.20;;;;;;6278119;22;20385;-73
2022/03/23 08:34:33;;;;;;;24.30;19.30;;;27.10;32.50;;;;;;6277270;22;20452;-74
2022/03/23 08:37:02;;;;;;;20.43;18.40;;;27.10;31.50;;;;;;6276923;22;20397;-73
2022/03/23 08:39:30;;;;;;;20.77;18.77;;;27.90;30.30;;;;;;6277441;22;20390;-73
2022/03/23 08:41:57;;;;;;;20.00;18.00;;;29.20;29.40;;;;;;6279667;22;20393;-72
2022/03/23 08:44:27;;;;;;;21.03;18.73;;;29.30;28.80;;;;;;6281058;22;20433;-74
2022/03/23 08:46:54;;;;;;;20.50;18.30;;;29.50;28.30;;;;;;6285401;22;20694;-73
2022/03/23 08:49:23;;;;;;;23.90;17.57;;;29.60;27.30;;;;;;6285825;22;20429;-71
2022/03/23 08:51:51;;;;;;;20.67;18.27;;;29.70;27.60;;;;;;6281415;22;20432;-74
2022/03/23 08:54:19;;;;;;;23.13;18.10;;;29.50;27.40;;;;;;6279391;22;20975;-72
2022/03/23 08:56:47;;;;;;;19.37;17.30;;;29.30;27.50;;;;;;6277398;22;20470;-73
2022/03/23 08:59:14;;;;;;;20.37;18.40;;;29.80;26.80;;;;;;6276892;22;20416;-73
2022/03/23 09:01:41;;;;;;;21.40;19.03;;;29.70;26.80;;;;;;6275967;22;20400;-73
2022/03/23 09:04:08;;;;;;;20.60;18.70;;;29.10;26.90;;;;;;6276497;22;20429;-74
2022/03/23 09:06:35;;;;;;;19.33;17.57;;;29.10;27.30;;;;;;6276269;22;20879;-74
2022/03/23 09:09:02;;;;;;;21.03;18.97;;;28.50;27.40;;;;;;6276367;22;20510;-74
2022/03/23 09:11:31;;;;;;;17.60;15.80;;;28.70;27.40;;;;;;6276214;22;20464;-73
2022/03/23 09:13:58;;;;;;;17.63;15.83;;;28.50;28.10;;;;;;6274969;22;20435;-72
2022/03/23 09:16:25;;;;;;;16.60;15.10;;;29.30;27.30;;;;;;6276213;22;20385;-73
2022/03/23 09:18:52;;;;;;;19.98;18.08;;;30.10;26.70;;;;;;6275223;22;20431;-71
2022/03/23 09:21:19;;;;;;;18.77;16.97;;;30.10;26.00;;;;;;6274032;22;20169;-72
2022/03/23 09:23:46;;;;;;;19.47;17.40;;;29.30;26.80;;;;;;6275751;22;20425;-71
2022/03/23 09:26:14;;;;;;;19.43;17.53;;;28.80;26.80;;;;;;6275950;22;20750;-70
2022/03/23 09:28:42;;;;;;;21.27;19.03;;;29.00;26.30;;;;;;6276424;22;20456;-72
2022/03/23 09:31:09;;;;;;;20.80;17.80;;;29.70;26.80;;;;;;6275532;22;20424;-71
2022/03/23 09:33:36;;;;;;;18.67;16.83;;;29.00;26.80;;;;;;6276062;22;20464;-70
2022/03/23 09:36:03;;;;;;;19.63;17.70;;;29.30;25.80;;;;;;6275126;22;20856;-70
2022/03/23 09:38:29;;;;;;;19.43;17.50;;;28.80;25.50;;;;;;6275579;22;20472;-72
2022/03/23 09:40:57;;;;;;;21.10;19.00;;;29.40;25.80;;;;;;6275210;22;20389;-72
2022/03/23 09:43:25;;;;;;;22.73;18.00;;;30.30;25.40;;;;;;6275156;22;20510;-71
2022/03/23 09:45:56;;;;;;;19.63;17.60;;;30.10;25.30;;;;;;6275709;22;20476;-72
2022/03/23 09:48:26;;;;;;;20.57;17.87;;;29.80;26.10;;;;;;6276076;22;20444;-71
2022/03/23 09:50:55;;;;;;;19.00;17.00;;;29.70;25.30;;;;;;6274482;22;20389;-71
2022/03/23 09:53:25;;;;;;;18.27;16.47;;;30.20;24.80;;;;;;6274156;22;20413;-68
2022/03/23 09:55:53;;;;;;;19.50;16.90;;;29.40;25.20;;;;;;6275106;22;20440;-71
2022/03/23 09:58:20;;;;;;;23.70;18.00;;;28.50;24.70;;;;;;6275751;22;20412;-71
2022/03/23 10:00:48;;;;;;;28.90;18.70;;;28.30;25.40;;;;;;6274825;22;20413;-72
2022/03/23 10:04:06;;;;;;;19.50;17.60;;;27.30;26.20;;;;;;6275090;22;20419;-72
2022/03/23 10:07:05;;;;;;;18.73;16.13;;;27.30;27.10;;;;;;6274386;22;20447;-70
2022/03/23 10:10:34;;;;;;;17.30;15.70;;;28.00;25.60;;;;;;6274270;22;20461;-72
2022/03/23 10:13:40;;;;;;;20.77;14.73;;;27.90;25.90;;;;;;6273815;22;20732;-73
2022/03/23 10:16:48;;;;;;;19.83;16.50;;;28.00;25.50;;;;;;6275006;22;20459;-71
2022/03/23 10:19:17;;;;;;;16.63;14.87;;;27.50;25.60;;;;;;6275826;22;20377;-70
2022/03/23 10:21:45;;;;;;;16.37;14.87;;;27.50;25.70;;;;;;6274749;22;20421;-70
2022/03/23 10:24:32;;;;;;;16.40;14.83;;;27.70;25.50;;;;;;6275068;22;20511;-71
2022/03/23 10:26:59;;;;;;;24.90;17.00;;;27.60;25.90;;;;;;6275660;22;20500;-71
2022/03/23 10:29:27;;;;;;;16.70;15.00;;;27.10;25.70;;;;;;6274814;22;20481;-69
2022/03/23 10:32:05;;;;;;;15.30;13.70;;;27.00;25.80;;;;;;6275118;22;20718;-71
2022/03/23 10:34:45;;;;;;;16.47;14.83;;;27.20;25.60;;;;;;6275284;22;20451;-71
2022/03/23 10:37:13;;;;;;;19.57;17.63;;;26.70;25.70;;;;;;6276320;22;20393;-72
2022/03/23 10:39:40;;;;;;;16.97;15.37;;;26.90;25.80;;;;;;6281348;22;20412;-71
2022/03/23 10:42:10;;;;;;;18.97;16.93;;;26.70;25.70;;;;;;6279784;22;20394;-70
2022/03/23 10:44:37;;;;;;;18.53;16.63;;;26.50;25.70;;;;;;6275730;22;20437;-72
2022/03/23 10:47:05;;;;;;;20.27;17.03;;;26.00;26.10;;;;;;6276210;22;20431;-71
2022/03/23 10:49:34;;;;;;;19.40;17.17;;;25.30;26.00;;;;;;6274643;22;21028;-72
2022/03/23 10:52:17;;;;;;;21.30;16.57;;;24.70;26.60;;;;;;6275414;22;20393;-72
2022/03/23 10:54:55;;;;;;;17.33;15.73;;;24.20;27.70;;;;;;6274862;22;20468;-71
2022/03/23 10:57:35;;;;;;;20.40;17.93;;;22.90;28.30;;;;;;6275371;22;20455;-71
2022/03/23 11:00:03;;;;;;;18.13;16.30;;;22.50;28.80;;;;;;6247265;22;20380;-72
2022/03/23 11:02:30;;;;;;;18.77;16.63;;;22.00;29.30;;;;;;6275294;22;20464;-72
2022/03/23 11:04:57;;;;;;;19.00;17.10;;;21.90;30.20;;;;;;6275275;22;20409;-71
2022/03/23 11:07:27;;;;;;;17.40;15.40;;;21.70;30.40;;;;;;6275816;22;20471;-72
2022/03/23 11:18:11;;;;;;;18.43;15.47;;;21.40;28.10;;;;;;6275071;22;20384;-72
2022/03/23 11:20:46;;;;;;;18.27;15.07;;;21.30;28.70;;;;;;6274803;22;20388;-72
2022/03/23 11:23:20;;;;;;;21.10;15.33;;;21.30;28.10;;;;;;6274399;22;20453;-71
2022/03/23 11:25:48;;;;;;;16.70;14.97;;;21.20;28.40;;;;;;6275536;22;20396;-72
2022/03/23 11:28:16;;;;;;;21.07;16.47;;;21.10;28.30;;;;;;6275800;22;20476;-72
2022/03/23 11:30:43;;;;;;;18.87;17.07;;;21.10;28.50;;;;;;6274827;22;20546;-70
2022/03/23 11:33:11;;;;;;;15.47;13.83;;;21.20;28.50;;;;;;6274282;22;20871;-71
2022/03/23 11:35:40;;;;;;;18.50;16.73;;;21.20;29.00;;;;;;6274977;22;20467;-72
2022/03/23 11:38:11;;;;;;;17.77;15.87;;;21.10;28.50;;;;;;6275722;22;20397;-71
2022/03/23 11:40:41;;;;;;;18.93;16.70;;;21.10;28.00;;;;;;6275074;22;20439;-72
2022/03/23 11:43:09;;;;;;;18.43;16.63;;;21.00;28.60;;;;;;6274451;22;20398;-73
2022/03/23 11:45:37;;;;;;;19.93;17.10;;;21.00;29.20;;;;;;6276509;22;20457;-72
2022/03/23 11:48:14;;;;;;;16.87;15.17;;;20.60;29.40;;;;;;6276630;22;20761;-72
2022/03/23 11:50:56;;;;;;;17.30;14.93;;;20.30;28.30;;;;;;6276493;22;20457;-71
2022/03/23 11:53:30;;;;;;;16.13;14.43;;;20.10;28.90;;;;;;6250304;22;20722;-72
2022/03/23 11:56:00;;;;;;;18.43;16.53;;;20.10;28.50;;;;;;6250640;22;20395;-71
2022/03/23 11:58:35;;;;;;;16.73;15.00;;;20.10;28.90;;;;;;6276968;22;20510;-72
2022/03/23 12:01:08;;;;;;;16.57;15.00;;;20.10;29.10;;;;;;6276083;22;20903;-72
2022/03/23 12:03:56;;;;;;;19.30;17.23;;;20.10;28.90;;;;;;6249652;22;20459;-72
2022/03/23 12:06:24;;;;;;;20.67;18.47;;;20.10;30.10;;;;;;6277621;22;20420;-71
2022/03/23 12:08:54;;;;;;;21.50;19.30;;;19.90;31.00;;;;;;6276864;22;20421;-71
2022/03/23 12:11:51;;;;;;;19.43;17.43;;;19.80;31.30;;;;;;6276933;22;20464;-71
2022/03/23 12:14:26;;;;;;;17.00;14.80;;;19.60;31.50;;;;;;6276381;22;20429;-72
2022/03/23 12:17:07;;;;;;;15.60;13.97;;;19.60;29.70;;;;;;6277467;22;20407;-73
2022/03/23 12:19:53;;;;;;;18.17;13.20;;;19.60;29.20;;;;;;6276560;22;20764;-70
2022/03/23 12:22:42;;;;;;;15.63;12.97;;;19.60;29.00;;;;;;6277672;22;20428;-71
2022/03/23 12:25:12;;;;;;;15.47;12.30;;;19.70;29.30;;;;;;6277733;22;20482;-70
2022/03/23 12:27:47;;;;;;;17.60;15.30;;;19.80;28.90;;;;;;6278234;22;20397;-71
2022/03/23 12:30:18;;;;;;;18.10;16.07;;;19.70;29.20;;;;;;6277070;22;20731;-72
2022/03/23 12:32:45;;;;;;;21.53;16.67;;;19.60;31.30;;;;;;6278425;22;20389;-72
2022/03/23 12:35:12;;;;;;;23.00;16.00;;;19.50;31.90;;;;;;6282272;22;20486;-69
2022/03/23 12:37:40;;;;;;;16.13;14.43;;;19.40;31.80;;;;;;6278058;22;20451;-71
2022/03/23 12:40:09;;;;;;;20.50;14.63;;;19.40;30.70;;;;;;6276579;22;20468;-71
2022/03/23 12:42:43;;;;;;;14.07;12.57;;;19.40;30.80;;;;;;6276555;22;20400;-72
2022/03/23 12:45:14;;;;;;;16.80;15.13;;;19.50;29.70;;;;;;6249564;22;20457;-74
2022/03/23 12:47:54;;;;;;;18.67;16.67;;;19.60;30.60;;;;;;6277326;22;20397;-72
2022/03/23 12:59:25;;;;;;;17.80;13.80;;;19.40;30.70;;;;;;6274681;22;20400;-72
2022/03/23 13:01:56;;;;;;;18.80;13.47;;;19.30;30.50;;;;;;6273992;22;20724;-70
2022/03/23 13:04:50;;;;;;;15.83;14.23;;;19.20;30.20;;;;;;6273908;22;20488;-74
2022/03/23 13:07:40;;;;;;;20.07;12.70;;;19.40;31.40;;;;;;6274291;22;20389;-71
2022/03/23 13:10:08;;;;;;;17.43;14.60;;;19.20;30.40;;;;;;6273910;22;20494;-72